createdAt,value
2023-03-03T00:01:20.649Z,99.90
2023-03-03T00:03:47.471Z,99.90
2023-03-03T00:06:15.118Z,99.90
2023-03-03T00:08:42.676Z,99.90
2023-03-03T00:11:09.960Z,99.90
2023-03-03T00:13:51.928Z,99.90
2023-03-03T00:16:27.940Z,99.90
2023-03-03T00:18:55.943Z,99.90
2023-03-03T00:21:32.028Z,99.90
2023-03-03T00:24:20.995Z,99.90
2023-03-03T00:26:56.691Z,99.90
2023-03-03T00:29:36.888Z,99.90
2023-03-03T00:32:15.650Z,99.90
2023-03-03T00:34:43.386Z,99.90
2023-03-03T00:37:32.595Z,99.90
2023-03-03T00:40:11.727Z,99.90
2023-03-03T00:42:38.390Z,99.90
2023-03-03T00:45:38.952Z,99.90
2023-03-03T00:48:35.504Z,99.90
2023-03-03T00:51:19.233Z,99.90
2023-03-03T00:53:46.031Z,99.90
2023-03-03T00:56:12.711Z,99.90
2023-03-03T00:58:39.587Z,99.90
2023-03-03T01:01:06.418Z,99.90
2023-03-03T01:03:33.147Z,99.90
2023-03-03T01:05:59.892Z,99.90
2023-03-03T01:08:26.635Z,99.90
2023-03-03T01:10:57.345Z,99.90
2023-03-03T01:13:28.109Z,99.90
2023-03-03T01:15:54.939Z,99.90
2023-03-03T01:18:21.846Z,99.90
2023-03-03T01:20:48.661Z,99.90
2023-03-03T01:23:15.390Z,99.90
2023-03-03T01:25:42.155Z,99.90
2023-03-03T01:28:09.422Z,99.90
2023-03-03T01:30:36.584Z,99.90
2023-03-03T01:33:03.816Z,99.90
2023-03-03T01:35:30.844Z,99.90
2023-03-03T01:37:58.956Z,99.90
2023-03-03T01:40:29.640Z,99.90
2023-03-03T01:42:56.811Z,99.90
2023-03-03T01:45:32.360Z,99.90
2023-03-03T01:48:08.936Z,99.90
2023-03-03T01:50:44.568Z,99.90
2023-03-03T01:53:40.975Z,99.90
2023-03-03T01:56:09.490Z,99.90
2023-03-03T01:58:45.804Z,99.90
2023-03-03T02:01:16.921Z,99.90
2023-03-03T02:03:44.338Z,99.90
2023-03-03T02:06:15.660Z,99.90
2023-03-03T02:09:17.776Z,99.90
2023-03-03T02:11:46.788Z,99.90
2023-03-03T02:14:14.134Z,99.90
2023-03-03T02:16:41.430Z,99.90
2023-03-03T02:19:28.135Z,99.90
2023-03-03T02:21:55.293Z,99.90
2023-03-03T02:24:40.270Z,99.90
2023-03-03T02:27:07.084Z,99.90
2023-03-03T02:29:33.883Z,99.90
2023-03-03T02:32:00.699Z,99.90
2023-03-03T02:34:27.498Z,99.90
2023-03-03T02:36:54.226Z,99.90
2023-03-03T02:39:24.300Z,99.90
2023-03-03T02:42:00.399Z,99.90
2023-03-03T02:44:30.254Z,99.90
2023-03-03T02:46:58.253Z,99.90
2023-03-03T02:49:27.789Z,99.90
2023-03-03T02:51:55.473Z,99.90
2023-03-03T02:54:23.894Z,99.90
2023-03-03T02:56:50.983Z,99.90
2023-03-03T02:59:18.569Z,99.90
2023-03-03T03:01:46.775Z,99.90
2023-03-03T03:04:16.012Z,99.90
2023-03-03T03:06:43.544Z,99.90
2023-03-03T03:09:11.555Z,99.90
2023-03-03T03:11:38.731Z,99.90
2023-03-03T03:14:06.792Z,99.90
2023-03-03T03:16:34.038Z,99.90
2023-03-03T03:19:02.252Z,99.90
2023-03-03T03:21:29.545Z,99.90
2023-03-03T03:23:56.273Z,99.90
2023-03-03T03:26:23.227Z,99.90
2023-03-03T03:28:50.845Z,99.90
2023-03-03T03:31:19.405Z,99.90
2023-03-03T03:33:46.539Z,99.90
2023-03-03T03:36:13.440Z,99.90
2023-03-03T03:38:40.176Z,99.90
2023-03-03T03:41:08.030Z,99.90
2023-03-03T03:43:34.944Z,99.90
2023-03-03T03:46:01.697Z,99.90
2023-03-03T03:48:29.018Z,99.90
2023-03-03T03:50:55.850Z,99.90
2023-03-03T03:53:22.780Z,99.90
2023-03-03T03:55:49.472Z,99.90
2023-03-03T03:58:17.750Z,99.90
2023-03-03T04:00:45.226Z,99.90
2023-03-03T04:03:14.526Z,99.90
2023-03-03T04:05:42.213Z,99.90
2023-03-03T04:08:09.511Z,99.90
2023-03-03T04:10:37.105Z,99.90
2023-03-03T04:13:04.239Z,99.90
2023-03-03T04:15:30.985Z,99.90
2023-03-03T04:17:57.759Z,99.90
2023-03-03T04:20:24.605Z,99.90
2023-03-03T04:22:51.392Z,99.90
2023-03-03T04:25:18.626Z,99.90
2023-03-03T04:27:45.486Z,99.90
2023-03-03T04:30:14.199Z,99.90
2023-03-03T04:32:41.779Z,99.90
2023-03-03T04:35:09.453Z,99.90
2023-03-03T04:37:37.612Z,99.90
2023-03-03T04:40:08.885Z,99.90
2023-03-03T04:42:35.960Z,99.90
2023-03-03T04:45:04.296Z,99.90
2023-03-03T04:47:32.522Z,99.90
2023-03-03T04:49:59.325Z,99.90
2023-03-03T04:52:26.089Z,99.90
2023-03-03T04:54:52.819Z,99.90
2023-03-03T04:57:19.610Z,99.90
2023-03-03T04:59:46.430Z,99.90
2023-03-03T05:02:13.393Z,99.90
2023-03-03T05:04:40.528Z,99.90
2023-03-03T05:07:07.411Z,99.90
2023-03-03T05:09:34.483Z,99.90
2023-03-03T05:12:01.407Z,99.90
2023-03-03T05:14:28.199Z,99.90
2023-03-03T05:16:55.204Z,99.90
2023-03-03T05:19:21.921Z,99.90
2023-03-03T05:21:48.698Z,99.90
2023-03-03T05:24:15.542Z,99.90
2023-03-03T05:26:42.362Z,99.90
2023-03-03T05:29:09.596Z,99.90
2023-03-03T05:31:36.741Z,99.90
2023-03-03T05:34:03.778Z,99.90
2023-03-03T05:36:30.495Z,99.90
2023-03-03T05:38:57.214Z,99.90
2023-03-03T05:41:24.273Z,99.90
2023-03-03T05:43:51.127Z,99.90
2023-03-03T05:46:17.996Z,99.90
2023-03-03T05:48:45.314Z,99.90
2023-03-03T05:51:12.386Z,99.90
2023-03-03T05:53:39.573Z,99.90
2023-03-03T05:56:06.631Z,99.90
2023-03-03T05:58:33.399Z,99.90
2023-03-03T06:01:00.150Z,99.90
2023-03-03T06:03:26.833Z,99.90
2023-03-03T06:05:53.686Z,99.90
2023-03-03T06:08:20.566Z,99.90
2023-03-03T06:10:47.343Z,99.90
2023-03-03T06:13:14.113Z,99.90
2023-03-03T06:15:40.874Z,99.90
2023-03-03T06:18:08.568Z,99.90
2023-03-03T06:20:35.805Z,99.90
2023-03-03T06:23:02.775Z,99.90
2023-03-03T06:25:29.536Z,99.90
2023-03-03T06:27:56.517Z,99.90
2023-03-03T06:30:23.279Z,99.90
2023-03-03T06:32:50.022Z,99.90
2023-03-03T06:35:18.322Z,99.90
2023-03-03T06:37:45.155Z,99.90
2023-03-03T06:40:12.422Z,99.90
2023-03-03T06:42:39.153Z,99.90
2023-03-03T06:45:06.253Z,99.90
2023-03-03T06:47:33.977Z,99.90
2023-03-03T06:50:00.790Z,99.90
2023-03-03T06:52:27.857Z,99.90
2023-03-03T06:54:57.949Z,99.90
2023-03-03T06:57:33.784Z,99.90
2023-03-03T07:00:16.638Z,99.90
2023-03-03T07:02:43.634Z,99.90
2023-03-03T07:05:14.882Z,99.90
2023-03-03T07:07:42.064Z,99.90
2023-03-03T07:10:27.758Z,99.90
2023-03-03T07:12:59.146Z,99.90
2023-03-03T07:15:34.027Z,99.90
2023-03-03T07:18:00.759Z,99.90
2023-03-03T07:20:35.834Z,99.90
2023-03-03T07:23:33.701Z,99.90
2023-03-03T07:26:00.464Z,99.90
2023-03-03T07:28:29.497Z,99.90
2023-03-03T07:30:58.088Z,99.90
2023-03-03T07:33:44.899Z,99.90
2023-03-03T07:36:37.650Z,99.90
2023-03-03T07:39:25.597Z,99.90
2023-03-03T07:41:52.489Z,99.90
2023-03-03T07:44:29.047Z,99.90
2023-03-03T07:46:55.897Z,99.90
2023-03-03T07:49:36.120Z,99.90
2023-03-03T07:52:20.700Z,99.90
2023-03-03T07:54:47.587Z,99.90
2023-03-03T07:57:34.480Z,99.90
2023-03-03T08:00:16.653Z,99.90
2023-03-03T08:03:03.082Z,99.90
2023-03-03T08:05:40.139Z,99.90
2023-03-03T08:08:09.717Z,99.90
2023-03-03T08:10:39.209Z,99.90
2023-03-03T08:13:23.949Z,99.90
2023-03-03T08:16:10.258Z,99.90
2023-03-03T08:18:39.962Z,99.90
2023-03-03T08:21:18.384Z,99.90
2023-03-03T08:23:45.120Z,99.90
2023-03-03T08:26:14.079Z,99.90
2023-03-03T08:28:41.142Z,99.90
2023-03-03T08:31:18.429Z,99.90
2023-03-03T08:33:51.858Z,99.90
2023-03-03T08:36:19.132Z,99.90
2023-03-03T08:38:45.844Z,99.90
2023-03-03T08:41:13.478Z,99.90
2023-03-03T08:43:40.201Z,99.90
2023-03-03T08:46:10.486Z,99.90
2023-03-03T08:48:37.859Z,99.90
2023-03-03T08:51:05.028Z,99.90
2023-03-03T08:53:34.156Z,99.90
2023-03-03T08:56:00.992Z,99.90
2023-03-03T08:58:35.010Z,99.90
2023-03-03T09:01:02.796Z,99.90
2023-03-03T09:03:30.075Z,99.90
2023-03-03T09:05:56.993Z,99.90
2023-03-03T09:08:23.728Z,99.90
2023-03-03T09:10:50.875Z,99.90
2023-03-03T09:13:19.620Z,99.90
2023-03-03T09:15:47.761Z,99.90
2023-03-03T09:18:35.341Z,99.90
2023-03-03T09:21:02.555Z,99.90
2023-03-03T09:23:39.385Z,99.90
2023-03-03T09:26:32.096Z,99.90
2023-03-03T09:29:26.337Z,99.90
2023-03-03T09:31:56.050Z,99.90
2023-03-03T09:34:39.149Z,99.00
2023-03-03T09:37:23.904Z,99.10
2023-03-03T09:39:52.910Z,99.60
2023-03-03T09:42:43.627Z,99.80
2023-03-03T09:45:19.919Z,99.50
2023-03-03T09:48:25.824Z,99.70
2023-03-03T09:51:03.978Z,99.90
2023-03-03T09:53:55.356Z,99.90
2023-03-03T09:56:28.266Z,99.90
2023-03-03T09:59:06.972Z,99.90
2023-03-03T10:01:42.754Z,99.90
2023-03-03T10:04:27.599Z,99.50
2023-03-03T10:07:03.415Z,99.50
2023-03-03T10:10:00.482Z,99.90
2023-03-03T10:13:04.736Z,99.20
2023-03-03T10:15:52.457Z,98.80
2023-03-03T10:18:35.834Z,99.50
2023-03-03T10:21:14.840Z,99.70
2023-03-03T10:23:52.001Z,98.90
2023-03-03T10:27:09.786Z,98.80
2023-03-03T10:29:53.481Z,99.10
2023-03-03T10:32:35.458Z,98.30
2023-03-03T10:35:20.692Z,97.50
2023-03-03T10:38:06.114Z,97.00
2023-03-03T10:40:43.121Z,95.20
2023-03-03T10:43:36.117Z,95.20
2023-03-03T10:46:19.537Z,94.70
2023-03-03T10:48:52.229Z,94.20
2023-03-03T10:51:57.890Z,93.50
2023-03-03T10:54:30.554Z,93.10
2023-03-03T10:57:00.245Z,92.80
2023-03-03T10:59:48.163Z,92.60
2023-03-03T11:02:53.534Z,92.10
2023-03-03T11:05:25.387Z,91.30
2023-03-03T11:07:58.099Z,90.00
2023-03-03T11:10:28.966Z,85.90
2023-03-03T11:13:11.121Z,82.60
2023-03-03T11:15:58.617Z,81.30
2023-03-03T11:18:27.386Z,81.20
2023-03-03T11:21:00.438Z,86.40
2023-03-03T11:24:12.203Z,79.60
2023-03-03T11:27:03.732Z,75.20
2023-03-03T11:29:40.787Z,75.60
2023-03-03T11:32:10.280Z,72.90
2023-03-03T11:35:04.982Z,73.80
2023-03-03T11:38:04.395Z,74.80
2023-03-03T11:40:46.290Z,74.90
2023-03-03T11:43:35.716Z,72.60
2023-03-03T11:46:09.451Z,72.00
2023-03-03T11:48:56.405Z,70.10
2023-03-03T11:51:48.121Z,68.70
2023-03-03T11:54:14.852Z,66.80
2023-03-03T11:56:44.021Z,65.30
2023-03-03T11:59:47.917Z,63.00
2023-03-03T12:02:35.124Z,63.10
2023-03-03T12:05:14.275Z,62.90
2023-03-03T12:08:07.052Z,61.40
2023-03-03T12:10:48.677Z,58.80
2023-03-03T12:13:39.089Z,59.60
2023-03-03T12:16:14.865Z,60.30
2023-03-03T12:19:02.735Z,59.20
2023-03-03T12:22:06.576Z,60.00
2023-03-03T12:25:04.626Z,59.40
2023-03-03T12:27:58.454Z,57.10
2023-03-03T12:30:52.523Z,55.90
2023-03-03T12:33:44.217Z,56.00
2023-03-03T12:36:46.412Z,55.50
2023-03-03T12:39:33.773Z,53.50
2023-03-03T12:42:13.339Z,53.20
2023-03-03T12:44:49.134Z,51.30
2023-03-03T12:47:22.276Z,52.30
2023-03-03T12:50:07.541Z,51.70
2023-03-03T12:53:09.857Z,53.20
2023-03-03T12:55:43.093Z,53.80
2023-03-03T12:58:15.650Z,53.30
2023-03-03T13:01:03.749Z,53.80
2023-03-03T13:03:49.641Z,54.90
2023-03-03T13:06:43.537Z,54.80
2023-03-03T13:09:28.618Z,52.90
2023-03-03T13:12:00.711Z,53.00
2023-03-03T13:14:36.196Z,52.00
2023-03-03T13:17:26.875Z,51.60
2023-03-03T13:19:58.130Z,50.00
2023-03-03T13:22:52.099Z,50.70
2023-03-03T13:25:46.217Z,50.50
2023-03-03T13:28:42.789Z,51.10
2023-03-03T13:31:17.867Z,51.70
2023-03-03T13:33:58.402Z,51.80
2023-03-03T13:36:52.419Z,52.00
2023-03-03T13:39:26.095Z,52.40
2023-03-03T13:42:02.541Z,51.50
2023-03-03T13:44:41.343Z,52.00
2023-03-03T13:47:21.427Z,51.60
2023-03-03T13:50:09.006Z,52.00
2023-03-03T13:52:58.523Z,51.70
2023-03-03T13:55:43.664Z,50.90
2023-03-03T13:58:22.053Z,50.10
2023-03-03T14:00:52.593Z,50.20
2023-03-03T14:03:23.773Z,50.40
2023-03-03T14:06:03.361Z,50.50
2023-03-03T14:08:54.865Z,51.40
2023-03-03T14:11:29.753Z,50.70
2023-03-03T14:14:02.597Z,50.80
2023-03-03T14:16:52.211Z,51.30
2023-03-03T14:19:28.846Z,50.40
2023-03-03T14:22:04.886Z,50.60
2023-03-03T14:24:31.850Z,50.30
2023-03-03T14:27:00.468Z,50.50
2023-03-03T14:29:29.944Z,51.30
2023-03-03T14:32:02.340Z,51.50
2023-03-03T14:34:41.178Z,51.60
2023-03-03T14:37:23.193Z,53.00
2023-03-03T14:40:19.290Z,52.30
2023-03-03T14:42:54.516Z,52.30
2023-03-03T14:45:41.675Z,52.20
2023-03-03T14:48:27.138Z,52.30
2023-03-03T14:50:59.069Z,52.30
2023-03-03T14:53:36.599Z,52.60
2023-03-03T14:56:28.318Z,52.70
2023-03-03T14:59:20.969Z,53.50
2023-03-03T15:01:56.264Z,54.30
2023-03-03T15:04:28.830Z,54.10
2023-03-03T15:06:56.042Z,54.10
2023-03-03T15:09:42.863Z,54.50
2023-03-03T15:12:22.921Z,54.90
2023-03-03T15:15:06.456Z,55.40
2023-03-03T15:17:37.823Z,55.50
2023-03-03T15:20:16.436Z,55.60
2023-03-03T15:22:53.242Z,55.60
2023-03-03T15:25:42.553Z,55.50
2023-03-03T15:28:32.879Z,55.00
2023-03-03T15:31:40.788Z,55.40
2023-03-03T15:34:23.992Z,55.20
2023-03-03T15:37:21.832Z,55.40
2023-03-03T15:40:09.462Z,55.50
2023-03-03T15:43:00.928Z,55.80
2023-03-03T15:45:37.626Z,55.60
2023-03-03T15:48:13.887Z,54.90
2023-03-03T15:51:14.132Z,54.80
2023-03-03T15:53:58.206Z,54.50
2023-03-03T15:56:25.001Z,54.70
2023-03-03T15:59:01.910Z,54.90
2023-03-03T16:01:41.414Z,54.90
2023-03-03T16:04:31.527Z,54.70
2023-03-03T16:07:25.875Z,54.20
2023-03-03T16:10:06.801Z,54.00
2023-03-03T16:12:39.613Z,54.00
2023-03-03T16:15:34.848Z,54.40
2023-03-03T16:18:38.998Z,55.00
2023-03-03T16:21:18.769Z,55.70
2023-03-03T16:23:51.302Z,56.30
2023-03-03T16:26:43.550Z,56.70
2023-03-03T16:29:31.583Z,57.10
2023-03-03T16:32:36.767Z,57.60
2023-03-03T16:35:17.792Z,58.10
2023-03-03T16:38:05.563Z,58.80
2023-03-03T16:40:36.379Z,58.80
2023-03-03T16:43:27.363Z,59.20
2023-03-03T16:46:03.310Z,59.40
2023-03-03T16:49:06.198Z,59.70
2023-03-03T16:52:10.014Z,59.50
2023-03-03T16:55:18.922Z,59.60
2023-03-03T16:58:03.573Z,59.70
2023-03-03T17:00:37.564Z,59.60
2023-03-03T17:03:22.973Z,59.60
2023-03-03T17:06:21.243Z,59.30
2023-03-03T17:09:03.678Z,59.40
2023-03-03T17:11:52.063Z,59.60
2023-03-03T17:14:53.290Z,59.60
2023-03-03T17:17:29.831Z,59.80
2023-03-03T17:20:15.070Z,60.00
2023-03-03T17:23:17.641Z,60.30
2023-03-03T17:26:00.474Z,60.50
2023-03-03T17:28:48.458Z,60.80
2023-03-03T17:31:15.111Z,61.00
2023-03-03T17:34:10.642Z,61.30
2023-03-03T17:37:05.366Z,61.70
2023-03-03T17:39:57.594Z,62.00
2023-03-03T17:42:48.437Z,62.30
2023-03-03T17:45:17.883Z,62.50
2023-03-03T17:47:51.987Z,62.70
2023-03-03T17:50:30.674Z,62.80
2023-03-03T17:53:15.644Z,62.80
2023-03-03T17:55:55.866Z,63.00
2023-03-03T17:58:42.988Z,63.20
2023-03-03T18:01:28.916Z,63.50
2023-03-03T18:04:19.924Z,63.80
2023-03-03T18:06:58.812Z,64.00
2023-03-03T18:09:25.730Z,64.20
2023-03-03T18:12:29.443Z,64.30
2023-03-03T18:15:37.067Z,64.80
2023-03-03T18:18:36.651Z,63.90
2023-03-03T18:21:10.067Z,63.90
2023-03-03T18:23:41.576Z,63.90
2023-03-03T18:26:33.169Z,63.90
2023-03-03T18:29:18.376Z,63.80
2023-03-03T18:31:54.000Z,63.40
2023-03-03T18:34:20.775Z,63.40
2023-03-03T18:37:25.129Z,63.50
2023-03-03T18:40:03.993Z,63.70
2023-03-03T18:42:44.031Z,63.90
2023-03-03T18:45:20.030Z,64.20
2023-03-03T18:48:07.839Z,64.60
2023-03-03T18:50:41.390Z,64.90
2023-03-03T18:53:11.105Z,65.20
2023-03-03T18:55:52.663Z,65.40
2023-03-03T18:58:19.371Z,65.20
2023-03-03T19:01:34.893Z,65.30
2023-03-03T19:04:20.889Z,65.50
2023-03-03T19:06:47.556Z,65.60
2023-03-03T19:09:20.702Z,65.70
2023-03-03T19:11:57.083Z,65.90
2023-03-03T19:14:28.933Z,65.90
2023-03-03T19:16:58.178Z,65.70
2023-03-03T19:19:32.623Z,65.50
2023-03-03T19:22:28.461Z,65.40
2023-03-03T19:25:27.109Z,65.80
2023-03-03T19:28:05.294Z,66.10
2023-03-03T19:30:51.164Z,66.60
2023-03-03T19:33:26.297Z,66.90
2023-03-03T19:36:15.562Z,67.50
2023-03-03T19:38:42.271Z,68.00
2023-03-03T19:41:19.874Z,68.50
2023-03-03T19:44:13.873Z,69.00
2023-03-03T19:46:59.978Z,69.40
2023-03-03T19:49:55.533Z,70.00
2023-03-03T19:52:22.215Z,70.20
2023-03-03T19:55:16.840Z,71.10
2023-03-03T19:58:27.822Z,70.60
2023-03-03T20:01:17.911Z,70.80
2023-03-03T20:03:50.602Z,71.20
2023-03-03T20:07:02.276Z,71.10
2023-03-03T20:09:37.841Z,71.20
2023-03-03T20:12:43.098Z,71.20
2023-03-03T20:15:42.260Z,71.50
2023-03-03T20:18:36.579Z,71.50
2023-03-03T20:21:21.450Z,71.40
2023-03-03T20:23:59.764Z,71.30
2023-03-03T20:26:35.793Z,71.30
2023-03-03T20:29:25.299Z,71.40
2023-03-03T20:32:12.097Z,71.50
2023-03-03T20:35:14.379Z,71.60
2023-03-03T20:37:49.772Z,71.80
2023-03-03T20:40:22.931Z,72.00
2023-03-03T20:43:17.866Z,72.20
2023-03-03T20:46:08.105Z,72.50
2023-03-03T20:48:59.539Z,72.60
2023-03-03T20:51:33.522Z,72.90
2023-03-03T20:54:23.787Z,73.80
2023-03-03T20:57:00.910Z,73.40
2023-03-03T20:59:44.273Z,73.60
2023-03-03T21:02:33.003Z,73.80
2023-03-03T21:05:15.929Z,73.80
2023-03-03T21:07:52.407Z,73.90
2023-03-03T21:10:29.907Z,74.10
2023-03-03T21:12:59.275Z,74.20
2023-03-03T21:15:33.795Z,74.30
2023-03-03T21:18:18.931Z,74.40
2023-03-03T21:20:45.683Z,74.70
2023-03-03T21:23:12.506Z,74.70
2023-03-03T21:25:49.431Z,75.00
2023-03-03T21:28:30.870Z,75.00
2023-03-03T21:31:17.252Z,75.00
2023-03-03T21:33:56.517Z,75.00
2023-03-03T21:36:32.267Z,75.10
2023-03-03T21:39:02.116Z,75.20
2023-03-03T21:41:57.957Z,75.30
2023-03-03T21:44:46.565Z,75.50
2023-03-03T21:47:15.990Z,75.70
2023-03-03T21:49:47.543Z,75.90
2023-03-03T21:52:16.809Z,76.10
2023-03-03T21:54:44.921Z,76.30
2023-03-03T21:57:11.995Z,76.70
2023-03-03T21:59:39.320Z,77.10
2023-03-03T22:02:06.702Z,78.10
2023-03-03T22:04:33.900Z,78.40
2023-03-03T22:07:03.790Z,78.00
2023-03-03T22:09:30.557Z,78.20
2023-03-03T22:11:57.335Z,78.60
2023-03-03T22:14:24.026Z,79.10
2023-03-03T22:16:50.767Z,79.50
2023-03-03T22:19:17.551Z,80.60
2023-03-03T22:21:44.444Z,80.50
2023-03-03T22:24:11.159Z,80.60
2023-03-03T22:26:37.934Z,79.70
2023-03-03T22:29:05.365Z,78.40
2023-03-03T22:31:32.231Z,78.00
2023-03-03T22:33:59.103Z,77.90
2023-03-03T22:36:25.819Z,78.00
2023-03-03T22:38:52.543Z,78.20
2023-03-03T22:41:19.447Z,78.40
2023-03-03T22:43:47.906Z,79.40
2023-03-03T22:46:15.149Z,79.60
2023-03-03T22:48:41.918Z,79.30
2023-03-03T22:51:08.674Z,79.70
2023-03-03T22:53:35.446Z,80.60
2023-03-03T22:56:02.339Z,80.00
2023-03-03T22:58:29.438Z,79.50
2023-03-03T23:00:56.325Z,79.20
2023-03-03T23:03:23.230Z,78.50
2023-03-03T23:05:51.975Z,77.70
2023-03-03T23:08:20.543Z,75.50
2023-03-03T23:10:48.186Z,74.10
2023-03-03T23:13:15.400Z,73.70
2023-03-03T23:15:42.294Z,73.50
2023-03-03T23:18:09.178Z,74.10
2023-03-03T23:20:36.703Z,73.30
2023-03-03T23:23:03.985Z,73.90
2023-03-03T23:25:30.886Z,73.40
2023-03-03T23:27:58.563Z,73.70
2023-03-03T23:30:25.406Z,74.20
2023-03-03T23:32:52.408Z,74.70
2023-03-03T23:35:20.046Z,75.10
2023-03-03T23:37:47.236Z,75.50
2023-03-03T23:40:15.550Z,76.00
2023-03-03T23:42:42.429Z,76.60
2023-03-03T23:45:10.807Z,77.00
2023-03-03T23:47:37.707Z,77.00
2023-03-03T23:50:04.875Z,76.90
2023-03-03T23:52:32.000Z,76.10
2023-03-03T23:54:58.784Z,75.90
2023-03-03T23:57:25.699Z,76.00
2023-03-03T23:59:52.465Z,76.70
